Cave Rock, Nevada
Current Conditions -  °F | °C
As of 9:53 PM on Monday 20 Oct 2014 (Local Time) from KTVL Reporting Station
Light Rain Light Rain  
Wind Chill: 40°   Ceiling: 3700
Heat Index: 45°   Visibility: 10mi
Dew Point: 38°   Wind: 10mph
Humidity: 76%   Direction: 200°SSW
Pressure: 30.01"   Gusts: NA
Location:  39.0164°N, 119.925°W
Report Text: KTVL 210453Z AUTO 20009KT 170V250 10SM -RA SCT026 OVC037 07/03 A3001 RMK AO2 PK WND 19030/0359 RAB0354E18B35 SLP123 P0002 T00720033
Loading
Personal Weather Stations






























Interactive Weather Map
Tropical Storm Tracking
New forecast layout! Learn more

10-Day Weather Forecast

Advertisements
Track Severe Weather on mobile